Time;durP1;ratioP1;P1;durP2;ratioP2;P2;SDS_P1;SDS_P2;PMS_P1;PMS_P2;Temp;Humidity;BMP_temperature;BMP_pressure;BME280_temperature;BME280_humidity;BME280_pressure;Samples;Min_cycle;Max_cycle;Signal;HPM_P1;HPM_P2
2021/05/16 00:01:17;;;;;;;11.10;3.75;;;;;;;10.63;83.37;99365.84;5020238;28;20029;-77
2021/05/16 00:03:43;;;;;;;14.15;3.78;;;;;;;10.62;83.37;99365.03;5035727;28;20063;-77
2021/05/16 00:06:08;;;;;;;16.80;4.15;;;;;;;10.62;83.77;99356.72;5019859;28;20025;-77
2021/05/16 00:08:34;;;;;;;17.98;3.72;;;;;;;10.63;83.60;99357.53;5039790;28;20029;-77
2021/05/16 00:11:00;;;;;;;14.13;3.88;;;;;;;10.61;83.50;99348.69;4995940;28;20044;-76
2021/05/16 00:13:26;;;;;;;15.43;3.75;;;;;;;10.64;83.99;99348.88;4991144;28;20022;-77
2021/05/16 00:15:52;;;;;;;11.20;3.40;;;;;;;10.67;83.57;99339.06;5045545;28;20032;-77
2021/05/16 00:18:17;;;;;;;15.23;3.80;;;;;;;10.66;84.25;99337.44;5033405;28;20055;-77
2021/05/16 00:20:43;;;;;;;14.63;3.53;;;;;;;10.70;84.08;99338.44;4998576;28;20033;-77
2021/05/16 00:23:09;;;;;;;17.63;3.83;;;;;;;10.70;84.15;99336.47;4999603;28;20025;-77
2021/05/16 00:25:35;;;;;;;17.42;3.88;;;;;;;10.71;83.93;99329.78;5043096;28;20029;-77
2021/05/16 00:28:00;;;;;;;14.70;3.67;;;;;;;10.70;85.70;99330.13;5036537;28;20059;-77
2021/05/16 00:30:27;;;;;;;12.63;2.97;;;;;;;10.72;84.98;99327.81;5001342;28;20481;-77
2021/05/16 00:32:56;;;;;;;13.23;3.35;;;;;;;10.70;84.79;99325.38;5047689;28;20525;-77
2021/05/16 00:35:23;;;;;;;14.05;3.35;;;;;;;10.72;84.84;99327.81;5034172;28;20497;-77
2021/05/16 00:37:49;;;;;;;14.40;3.33;;;;;;;10.74;85.29;99325.53;5038088;28;20092;-77
2021/05/16 00:40:15;;;;;;;18.02;3.63;;;;;;;10.74;84.45;99323.56;4990473;28;20467;-77
2021/05/16 00:42:40;;;;;;;12.93;3.25;;;;;;;10.73;83.90;99327.50;4998321;28;20029;-77
2021/05/16 00:45:09;;;;;;;15.85;3.53;;;;;;;10.73;83.88;99310.84;4991079;28;20034;-77
2021/05/16 00:47:36;;;;;;;12.57;3.30;;;;;;;10.74;83.77;99317.19;5018686;28;20026;-77
2021/05/16 00:50:02;;;;;;;14.05;3.05;;;;;;;10.75;84.54;99318.81;5044784;28;20032;-77
2021/05/16 00:52:28;;;;;;;13.38;2.83;;;;;;;10.76;84.40;99309.38;5025350;28;20029;-77
2021/05/16 00:54:54;;;;;;;11.40;2.95;;;;;;;10.74;84.42;99308.88;4985953;28;20040;-77
2021/05/16 00:57:20;;;;;;;14.57;3.65;;;;;;;10.74;83.89;99306.09;5006030;28;20025;-77
2021/05/16 00:59:46;;;;;;;12.75;3.17;;;;;;;10.74;84.48;99311.66;4991259;28;20040;-77
2021/05/16 01:02:11;;;;;;;13.40;2.80;;;;;;;10.75;84.16;99304.94;5019742;28;20080;-77
2021/05/16 01:04:38;;;;;;;13.50;3.05;;;;;;;10.75;84.23;99304.94;5016988;28;20390;-77
2021/05/16 01:07:04;;;;;;;12.82;3.00;;;;;;;10.73;84.72;99296.13;5019034;28;20033;-77
2021/05/16 01:09:29;;;;;;;15.98;3.50;;;;;;;10.72;84.35;99294.50;4991641;28;20777;-77
2021/05/16 01:11:55;;;;;;;15.90;3.38;;;;;;;10.71;84.82;99288.13;4993924;28;20067;-77
2021/05/16 01:14:24;;;;;;;19.58;4.05;;;;;;;10.75;84.23;99288.28;5013013;28;20030;-76
2021/05/16 01:16:50;;;;;;;15.48;3.17;;;;;;;10.75;84.17;99293.84;5009030;28;20029;-77
2021/05/16 01:19:16;;;;;;;14.15;2.80;;;;;;;10.74;84.38;99295.00;4999295;28;20100;-77
2021/05/16 01:21:42;;;;;;;10.45;3.10;;;;;;;10.72;84.42;99288.94;5014911;28;20034;-78
2021/05/16 01:24:16;;;;;;;12.60;3.58;;;;;;;10.72;84.32;99286.16;4994041;28;20079;-77
2021/05/16 01:26:45;;;;;;;13.20;2.85;;;;;;;10.73;84.38;99285.03;4988309;28;20030;-77
2021/05/16 01:29:11;;;;;;;9.40;2.35;;;;;;;10.71;84.32;99281.75;5013680;28;20068;-77
2021/05/16 01:31:37;;;;;;;14.60;2.97;;;;;;;10.73;84.25;99282.25;5005667;28;20030;-78
2021/05/16 01:34:03;;;;;;;12.65;2.78;;;;;;;10.70;84.09;99269.03;5020165;28;20068;-77
2021/05/16 01:36:29;;;;;;;13.25;2.47;;;;;;;10.71;84.39;99276.19;5033450;28;20040;-77
2021/05/16 01:38:55;;;;;;;12.48;3.00;;;;;;;10.74;84.22;99259.69;5044117;28;20045;-77
2021/05/16 01:41:20;;;;;;;14.00;4.03;;;;;;;10.71;84.98;99260.34;5022523;28;20030;-77
2021/05/16 01:43:47;;;;;;;18.02;3.38;;;;;;;10.70;84.96;99252.38;5022376;28;20026;-78
2021/05/16 01:46:15;;;;;;;13.45;3.10;;;;;;;10.68;85.34;99258.22;5038961;28;20043;-77
2021/05/16 01:48:40;;;;;;;10.05;2.42;;;;;;;10.71;84.82;99248.44;5040861;28;20466;-77
2021/05/16 01:51:07;;;;;;;13.25;2.60;;;;;;;10.68;85.85;99243.53;5007770;28;20055;-78
2021/05/16 01:53:32;;;;;;;12.65;3.08;;;;;;;10.68;84.95;99230.47;5009404;28;20029;-77
2021/05/16 01:55:58;;;;;;;13.50;2.92;;;;;;;10.65;86.00;99231.13;5050181;28;20013;-78
2021/05/16 01:58:23;;;;;;;15.63;3.17;;;;;;;10.64;85.66;99235.06;5041019;28;20032;-77
2021/05/16 02:00:49;;;;;;;12.60;2.85;;;;;;;10.66;85.28;99237.47;5028473;28;20470;-77
2021/05/16 02:03:15;;;;;;;8.27;2.40;;;;;;;10.65;85.42;99242.22;5029513;28;20024;-78
2021/05/16 02:05:40;;;;;;;12.20;2.75;;;;;;;10.66;85.50;99245.81;5011478;28;20017;-77
2021/05/16 02:08:06;;;;;;;14.50;2.97;;;;;;;10.63;85.92;99241.72;4988003;28;20026;-78
2021/05/16 02:10:32;;;;;;;10.88;2.70;;;;;;;10.64;86.23;99242.53;5032011;28;20462;-78
2021/05/16 02:12:57;;;;;;;11.05;2.30;;;;;;;10.63;85.75;99235.34;4990363;28;20060;-77
2021/05/16 02:15:23;;;;;;;11.43;2.63;;;;;;;10.62;86.08;99242.88;5005304;28;20044;-77
2021/05/16 02:17:53;;;;;;;11.35;2.38;;;;;;;10.64;85.67;99242.53;5039956;28;20029;-78
2021/05/16 02:20:19;;;;;;;15.38;2.47;;;;;;;10.63;86.36;99235.34;4978901;28;20049;-78
2021/05/16 02:22:45;;;;;;;10.00;2.38;;;;;;;10.60;85.52;99228.50;5003515;28;20071;-77
2021/05/16 02:25:11;;;;;;;8.73;2.20;;;;;;;10.62;86.07;99226.22;5011304;28;20028;-77
2021/05/16 02:27:37;;;;;;;12.77;2.65;;;;;;;10.62;86.61;99225.41;5009247;28;20033;-78
2021/05/16 02:30:04;;;;;;;11.38;2.53;;;;;;;10.60;85.33;99231.28;5006468;28;20032;-77
2021/05/16 02:32:29;;;;;;;11.88;2.92;;;;;;;10.62;85.63;99228.19;5021655;28;20103;-77
2021/05/16 02:34:55;;;;;;;12.20;2.22;;;;;;;10.60;84.99;99224.91;5038248;28;20053;-77
2021/05/16 02:37:21;;;;;;;14.43;3.05;;;;;;;10.59;85.82;99229.66;5035418;28;20057;-78
2021/05/16 02:39:46;;;;;;;11.45;2.30;;;;;;;10.59;85.45;99224.09;4976827;28;20040;-77
2021/05/16 02:42:12;;;;;;;8.25;2.10;;;;;;;10.57;85.12;99220.00;5031843;28;20437;-78
2021/05/16 02:44:37;;;;;;;15.15;2.80;;;;;;;10.56;85.49;99218.34;5039323;28;20025;-77
2021/05/16 02:47:03;;;;;;;9.05;2.10;;;;;;;10.55;86.11;99222.28;5024292;28;20025;-77
2021/05/16 02:49:29;;;;;;;9.18;2.17;;;;;;;10.54;85.57;99215.13;5034911;28;20400;-77
2021/05/16 02:51:56;;;;;;;12.80;2.78;;;;;;;10.49;87.11;99219.66;5004664;28;20099;-77
2021/05/16 02:54:21;;;;;;;9.38;2.22;;;;;;;10.56;86.07;99215.59;4987724;28;20067;-77
2021/05/16 02:56:47;;;;;;;9.98;2.50;;;;;;;10.49;86.86;99216.06;4993571;28;20548;-77
2021/05/16 02:59:13;;;;;;;14.77;2.80;;;;;;;10.51;86.46;99217.38;4999729;28;20032;-77
2021/05/16 03:01:38;;;;;;;12.15;2.55;;;;;;;10.48;86.75;99218.03;5037889;28;20028;-76
2021/05/16 03:04:04;;;;;;;10.98;2.40;;;;;;;10.49;86.46;99213.31;5017865;28;20427;-77
2021/05/16 03:06:30;;;;;;;10.95;2.28;;;;;;;10.50;86.49;99204.66;5038037;28;20033;-76
2021/05/16 03:08:56;;;;;;;13.18;2.55;;;;;;;10.50;86.68;99207.44;5052886;28;20040;-76
2021/05/16 03:11:21;;;;;;;13.95;2.72;;;;;;;10.50;87.15;99199.09;5016946;28;20025;-77
2021/05/16 03:13:47;;;;;;;10.45;2.28;;;;;;;10.51;86.82;99202.69;4989523;28;20035;-76
2021/05/16 03:16:13;;;;;;;11.23;3.05;;;;;;;10.51;87.81;99206.28;5034130;28;20040;-77
2021/05/16 03:18:38;;;;;;;14.80;2.40;;;;;;;10.52;86.73;99212.66;5036148;28;20055;-78
2021/05/16 03:21:04;;;;;;;14.50;2.30;;;;;;;10.54;86.45;99201.22;5038872;28;20050;-77
2021/05/16 03:23:30;;;;;;;11.13;2.05;;;;;;;10.53;86.83;99200.41;5030920;28;20013;-77
2021/05/16 03:26:00;;;;;;;8.55;2.15;;;;;;;10.55;86.21;99202.84;5010974;28;20025;-77
2021/05/16 03:28:26;;;;;;;10.23;2.40;;;;;;;10.58;86.52;99196.66;5046769;28;20029;-76
2021/05/16 03:30:52;;;;;;;11.75;2.60;;;;;;;10.57;86.53;99193.06;5030438;28;20523;-77
2021/05/16 03:33:18;;;;;;;7.88;2.70;;;;;;;10.57;86.06;99195.84;5041070;28;20068;-77
2021/05/16 03:35:43;;;;;;;12.65;2.75;;;;;;;10.59;86.83;99203.84;5051491;28;20024;-77
2021/05/16 03:38:09;;;;;;;11.85;2.45;;;;;;;10.60;86.02;99195.19;5034680;28;20405;-77
2021/05/16 03:40:35;;;;;;;9.57;2.40;;;;;;;10.64;86.67;99203.66;5048822;28;20052;-77
2021/05/16 03:43:00;;;;;;;8.48;2.00;;;;;;;10.66;86.24;99201.38;5004574;28;20481;-77
2021/05/16 03:45:26;;;;;;;9.75;2.15;;;;;;;10.64;85.92;99203.66;5020654;28;20025;-77
2021/05/16 03:47:52;;;;;;;15.80;2.67;;;;;;;10.67;86.64;99206.63;5011192;28;20450;-77
2021/05/16 03:50:17;;;;;;;11.88;2.67;;;;;;;10.67;87.15;99203.84;5033722;28;20029;-76
2021/05/16 03:52:43;;;;;;;10.13;2.35;;;;;;;10.70;86.16;99207.94;5052768;28;20032;-77
2021/05/16 03:55:10;;;;;;;8.85;1.80;;;;;;;10.70;85.66;99210.72;5052020;28;20047;-77
2021/05/16 03:57:36;;;;;;;8.50;2.20;;;;;;;10.70;85.44;99207.94;5036138;28;20113;-77
2021/05/16 04:00:03;;;;;;;10.55;2.42;;;;;;;10.66;85.81;99209.72;5031507;28;20025;-76
2021/05/16 04:02:29;;;;;;;8.52;1.95;;;;;;;10.67;85.27;99200.22;5054207;28;20036;-77
2021/05/16 04:04:55;;;;;;;6.15;2.08;;;;;;;10.66;85.37;99198.63;5057129;28;20045;-77
2021/05/16 04:07:21;;;;;;;9.43;2.28;;;;;;;10.67;85.69;99203.00;5035288;28;20028;-76
2021/05/16 04:09:47;;;;;;;9.23;1.85;;;;;;;10.65;85.92;99195.03;5062797;28;20053;-77
2021/05/16 04:12:13;;;;;;;8.95;1.88;;;;;;;10.63;85.67;99207.59;5056350;28;20032;-77
2021/05/16 04:14:38;;;;;;;7.57;1.90;;;;;;;10.61;86.27;99198.78;5052448;28;20033;-77
2021/05/16 04:17:04;;;;;;;7.93;2.05;;;;;;;10.52;86.09;99196.81;5035820;28;20024;-77
2021/05/16 04:19:29;;;;;;;10.95;1.80;;;;;;;10.58;85.56;99199.41;5070372;28;20067;-77
2021/05/16 04:21:55;;;;;;;7.22;1.75;;;;;;;10.56;85.36;99198.91;5035961;28;20075;-77
2021/05/16 04:24:21;;;;;;;6.53;1.77;;;;;;;10.55;85.15;99205.63;5030972;28;20021;-77
2021/05/16 04:26:46;;;;;;;7.45;1.90;;;;;;;10.48;84.92;99206.94;5006915;28;20040;-78
2021/05/16 04:29:12;;;;;;;6.65;1.60;;;;;;;10.44;84.81;99214.25;5022488;28;20029;-78
2021/05/16 04:31:38;;;;;;;7.45;2.03;;;;;;;10.44;84.84;99207.91;5021588;28;20060;-77
2021/05/16 04:34:03;;;;;;;6.40;1.60;;;;;;;10.40;84.89;99201.38;5023654;28;20489;-78
2021/05/16 04:36:29;;;;;;;7.40;2.05;;;;;;;10.35;85.07;99207.91;5036743;28;20040;-77
2021/05/16 04:38:55;;;;;;;7.63;1.98;;;;;;;10.31;84.92;99197.75;5037288;28;20044;-77
2021/05/16 04:41:20;;;;;;;7.40;1.73;;;;;;;10.30;84.91;99199.72;5067431;28;20429;-77
2021/05/16 04:43:46;;;;;;;9.52;1.92;;;;;;;10.31;85.26;99208.84;5050400;28;20485;-76
2021/05/16 04:46:12;;;;;;;7.18;1.95;;;;;;;10.33;85.15;99214.91;5037316;28;20029;-77
2021/05/16 04:48:38;;;;;;;7.25;1.85;;;;;;;10.29;85.58;99214.75;5033301;28;20104;-76
2021/05/16 04:51:04;;;;;;;6.80;1.73;;;;;;;10.29;85.97;99214.75;5035743;28;20436;-76
2021/05/16 04:53:32;;;;;;;6.97;1.85;;;;;;;10.28;86.08;99213.13;5015463;28;20051;-77
2021/05/16 04:55:58;;;;;;;6.38;1.70;;;;;;;10.30;86.07;99216.38;5036898;28;20033;-76
2021/05/16 04:58:24;;;;;;;11.25;1.70;;;;;;;10.34;86.97;99217.38;5034990;28;20028;-76
2021/05/16 05:00:50;;;;;;;8.02;1.73;;;;;;;10.37;87.15;99222.28;5037155;28;20509;-76
2021/05/16 05:03:16;;;;;;;8.38;1.80;;;;;;;10.43;86.55;99220.97;5019681;28;20021;-76
2021/05/16 05:05:41;;;;;;;8.02;1.75;;;;;;;10.47;86.82;99213.66;5038347;28;20025;-76
2021/05/16 05:08:07;;;;;;;9.57;2.30;;;;;;;10.52;86.53;99209.88;5021201;28;20037;-76
2021/05/16 05:10:33;;;;;;;6.03;1.50;;;;;;;10.55;87.05;99214.78;5015772;28;20040;-77
2021/05/16 05:12:58;;;;;;;9.77;2.53;;;;;;;10.57;86.89;99209.72;5009478;28;20089;-79
2021/05/16 05:15:24;;;;;;;7.20;1.85;;;;;;;10.62;87.66;99206.78;5020207;28;20033;-77
2021/05/16 05:17:49;;;;;;;5.65;1.70;;;;;;;10.66;86.85;99204.16;4992311;28;20547;-77
2021/05/16 05:20:15;;;;;;;8.52;1.58;;;;;;;10.68;87.41;99201.88;4992278;28;20024;-76
2021/05/16 05:22:41;;;;;;;8.18;1.83;;;;;;;10.70;86.55;99200.41;4995926;28;20378;-77
2021/05/16 05:25:07;;;;;;;8.88;1.52;;;;;;;10.73;86.77;99207.28;5005138;28;20037;-77
2021/05/16 05:27:33;;;;;;;8.63;2.35;;;;;;;10.74;88.73;99206.13;5056425;28;20036;-77
2021/05/16 05:29:58;;;;;;;7.38;1.80;;;;;;;10.76;87.34;99209.41;5022708;28;20398;-78
2021/05/16 05:32:24;;;;;;;9.80;1.98;;;;;;;10.78;87.10;99214.59;4989197;28;20045;-77
2021/05/16 05:34:50;;;;;;;7.75;1.80;;;;;;;10.82;86.36;99210.06;5029610;28;20030;-77
2021/05/16 05:37:16;;;;;;;7.68;1.80;;;;;;;10.83;86.18;99215.25;4989839;28;20049;-76
2021/05/16 05:39:41;;;;;;;6.72;1.92;;;;;;;10.85;86.28;99214.94;5034828;28;20021;-77
2021/05/16 05:42:07;;;;;;;7.38;1.80;;;;;;;10.85;85.96;99223.28;5023006;28;20027;-78
2021/05/16 05:44:34;;;;;;;9.35;2.55;;;;;;;10.86;85.95;99216.56;5038068;28;20025;-77
2021/05/16 05:47:00;;;;;;;7.60;1.80;;;;;;;10.86;85.70;99213.78;5018905;28;20035;-77
2021/05/16 05:49:26;;;;;;;6.20;1.40;;;;;;;10.89;86.12;99213.97;5012110;28;20041;-76
2021/05/16 05:51:51;;;;;;;10.80;1.95;;;;;;;10.92;87.23;99207.75;5052881;28;20025;-77
2021/05/16 05:54:17;;;;;;;7.30;1.63;;;;;;;11.00;86.21;99200.53;5009795;28;20033;-77
2021/05/16 05:56:43;;;;;;;9.00;2.35;;;;;;;11.09;85.17;99214.44;5055013;28;20467;-76
2021/05/16 05:59:09;;;;;;;9.40;1.52;;;;;;;11.17;84.77;99211.66;5022222;28;20025;-74
2021/05/16 06:01:35;;;;;;;5.82;1.40;;;;;;;11.30;84.31;99220.13;5022122;28;20093;-74
2021/05/16 06:04:00;;;;;;;6.15;1.80;;;;;;;11.45;84.31;99227.09;5034226;28;20445;-74
2021/05/16 06:06:26;;;;;;;8.65;1.60;;;;;;;11.58;83.91;99228.88;5020921;28;20028;-74
2021/05/16 06:08:52;;;;;;;6.65;1.63;;;;;;;11.74;83.65;99227.19;5048627;28;20025;-74
2021/05/16 06:11:17;;;;;;;9.55;1.90;;;;;;;11.89;83.40;99219.47;5044795;28;20025;-74
2021/05/16 06:13:43;;;;;;;9.07;1.65;;;;;;;12.07;82.99;99226.59;4990425;28;20095;-73
2021/05/16 06:16:09;;;;;;;9.10;2.10;;;;;;;12.24;83.00;99220.09;5046742;28;20079;-73
2021/05/16 06:18:36;;;;;;;9.82;1.98;;;;;;;12.41;82.26;99220.00;5056498;28;20496;-75
2021/05/16 06:21:02;;;;;;;8.60;2.00;;;;;;;12.60;82.14;99221.50;5054493;28;20538;-74
2021/05/16 06:23:34;;;;;;;8.15;1.63;;;;;;;12.77;81.69;99218.59;5017354;28;20017;-76
2021/05/16 06:26:00;;;;;;;9.23;1.90;;;;;;;12.97;81.27;99219.72;5036625;28;20482;-73
2021/05/16 06:28:26;;;;;;;9.73;2.25;;;;;;;13.14;81.03;99216.78;5023574;28;20032;-74
2021/05/16 06:30:51;;;;;;;6.90;1.50;;;;;;;13.36;80.22;99223.16;5054387;28;20033;-73
2021/05/16 06:33:17;;;;;;;14.93;1.95;;;;;;;13.48;80.21;99223.19;5052647;28;20075;-75
2021/05/16 06:35:43;;;;;;;10.85;1.75;;;;;;;13.69;79.70;99227.88;5024071;28;20025;-76
2021/05/16 06:38:08;;;;;;;12.88;2.47;;;;;;;13.83;79.37;99228.38;5038454;28;20049;-75
2021/05/16 06:40:35;;;;;;;13.57;2.53;;;;;;;13.97;79.22;99220.47;5032745;28;20095;-76
2021/05/16 06:43:03;;;;;;;10.43;2.22;;;;;;;14.14;78.52;99238.16;5042799;28;20033;-75
2021/05/16 06:45:29;;;;;;;9.05;2.00;;;;;;;14.26;78.17;99229.78;5071818;28;20037;-77
2021/05/16 06:47:55;;;;;;;14.55;2.05;;;;;;;14.37;77.64;99221.75;5016742;28;20115;-74
2021/05/16 06:50:21;;;;;;;15.52;2.40;;;;;;;14.47;77.49;99218.47;5056830;28;20496;-75
2021/05/16 06:52:47;;;;;;;13.20;1.85;;;;;;;14.61;77.37;99221.75;5053098;28;20088;-83
2021/05/16 06:55:13;;;;;;;9.68;2.30;;;;;;;14.76;76.92;99217.38;5007606;28;20032;-82
2021/05/16 06:57:41;;;;;;;13.18;2.15;;;;;;;14.87;76.78;99224.09;5020627;28;20033;-81
2021/05/16 07:00:08;;;;;;;11.43;2.10;;;;;;;15.00;76.67;99224.09;5022137;28;20037;-80
2021/05/16 07:02:34;;;;;;;11.48;1.98;;;;;;;15.10;76.53;99229.16;5029229;28;20390;-81
2021/05/16 07:04:59;;;;;;;12.60;2.30;;;;;;;15.19;76.18;99222.25;5039395;28;20032;-80
2021/05/16 07:07:25;;;;;;;12.40;2.47;;;;;;;15.28;76.08;99227.69;5008779;28;20040;-81
2021/05/16 07:09:51;;;;;;;14.13;2.80;;;;;;;15.35;75.81;99219.50;5037699;28;20021;-83
2021/05/16 07:12:16;;;;;;;12.95;2.28;;;;;;;15.43;75.49;99228.88;5053571;28;20021;-81
2021/05/16 07:14:42;;;;;;;12.25;2.40;;;;;;;15.49;75.49;99227.47;5003347;28;20029;-77
2021/05/16 07:17:08;;;;;;;10.20;2.33;;;;;;;15.57;75.36;99225.66;5018683;28;20029;-83
2021/05/16 07:19:33;;;;;;;10.60;2.25;;;;;;;15.65;75.27;99228.28;5037854;28;20033;-80
2021/05/16 07:21:59;;;;;;;12.60;2.10;;;;;;;15.70;74.95;99218.84;5015313;28;20021;-81
2021/05/16 07:24:25;;;;;;;13.48;2.00;;;;;;;15.78;74.79;99220.66;5039125;28;20029;-81
2021/05/16 07:26:50;;;;;;;13.85;2.08;;;;;;;15.83;74.61;99220.41;5016496;28;20036;-82
2021/05/16 07:29:16;;;;;;;10.80;2.17;;;;;;;15.93;74.29;99221.84;5006417;28;20037;-81
2021/05/16 07:31:42;;;;;;;12.15;2.17;;;;;;;16.01;74.39;99226.44;5029149;28;20531;-81
2021/05/16 07:34:07;;;;;;;13.43;2.10;;;;;;;16.14;74.06;99231.97;5012634;28;20045;-82
2021/05/16 07:36:33;;;;;;;13.77;1.98;;;;;;;16.25;73.69;99233.03;5067513;28;20029;-82
2021/05/16 07:39:00;;;;;;;12.60;2.05;;;;;;;16.31;73.48;99223.97;5050185;28;20052;-82
2021/05/16 07:41:26;;;;;;;11.95;2.50;;;;;;;16.41;73.08;99224.59;5021212;28;20104;-83
2021/05/16 07:43:51;;;;;;;14.13;2.55;;;;;;;16.50;72.82;99228.03;5031990;28;20048;-83
2021/05/16 07:46:17;;;;;;;13.07;2.35;;;;;;;16.60;72.90;99221.84;5014962;28;20021;-84
2021/05/16 07:48:43;;;;;;;12.52;2.75;;;;;;;16.71;72.39;99225.69;5034813;28;20033;-84
2021/05/16 07:51:08;;;;;;;12.05;2.15;;;;;;;16.84;72.18;99220.00;5053883;28;20029;-83
2021/05/16 07:53:35;;;;;;;10.02;2.22;;;;;;;16.94;71.91;99214.63;5034673;28;20033;-82
2021/05/16 07:56:03;;;;;;;13.48;2.60;;;;;;;17.08;71.50;99219.72;5033947;28;20032;-82
2021/05/16 07:58:29;;;;;;;15.73;2.75;;;;;;;17.09;70.75;99220.53;5001481;28;20029;-83
2021/05/16 08:00:54;;;;;;;16.45;2.53;;;;;;;17.22;70.11;99229.59;5019911;28;20033;-83
2021/05/16 08:03:20;;;;;;;13.80;2.20;;;;;;;17.28;70.10;99228.94;5055177;28;20022;-82
2021/05/16 08:05:46;;;;;;;17.40;2.83;;;;;;;17.31;69.93;99222.59;5032449;28;20032;-82
2021/05/16 08:08:11;;;;;;;10.48;2.28;;;;;;;17.35;70.23;99217.03;5045717;28;20033;-81
2021/05/16 08:10:37;;;;;;;15.77;2.45;;;;;;;17.39;69.98;99204.69;5023316;28;20028;-82
2021/05/16 08:13:03;;;;;;;12.40;2.47;;;;;;;17.48;69.95;99210.06;5023515;28;20508;-82
2021/05/16 08:15:28;;;;;;;15.00;2.55;;;;;;;17.54;69.68;99219.81;4998004;28;20025;-81
2021/05/16 08:17:54;;;;;;;17.45;2.42;;;;;;;17.59;69.25;99222.31;5023399;28;20489;-82
2021/05/16 08:20:20;;;;;;;11.90;2.03;;;;;;;17.68;69.37;99230.50;5037442;28;20032;-82
2021/05/16 08:22:45;;;;;;;16.35;2.50;;;;;;;17.79;69.35;99228.72;5023499;28;20021;-81
2021/05/16 08:25:12;;;;;;;13.05;2.30;;;;;;;17.92;69.22;99228.56;5050245;28;20385;-81
2021/05/16 08:27:41;;;;;;;11.88;2.00;;;;;;;18.03;68.88;99227.53;5019310;28;20032;-74
2021/05/16 08:30:08;;;;;;;10.57;2.05;;;;;;;18.19;68.65;99226.56;5032324;28;20036;-75
2021/05/16 08:32:33;;;;;;;11.57;2.03;;;;;;;18.32;68.24;99219.56;5043165;28;20025;-73
2021/05/16 08:34:59;;;;;;;8.88;1.88;;;;;;;18.44;67.65;99224.16;5025254;28;20033;-73
2021/05/16 08:37:24;;;;;;;13.68;1.90;;;;;;;18.52;67.50;99218.25;5036437;28;20049;-73
2021/05/16 08:39:50;;;;;;;13.63;2.42;;;;;;;18.62;66.92;99213.19;5045340;28;20033;-73
2021/05/16 08:42:16;;;;;;;12.43;2.05;;;;;;;18.64;66.35;99216.44;5040967;28;20393;-73
2021/05/16 08:44:42;;;;;;;11.32;2.00;;;;;;;18.69;66.42;99207.66;5021982;28;20094;-76
2021/05/16 08:47:08;;;;;;;12.15;2.30;;;;;;;18.77;66.42;99200.16;5036924;28;20021;-75
2021/05/16 08:49:33;;;;;;;11.35;1.90;;;;;;;18.87;66.08;99205.13;5021154;28;20040;-74
2021/05/16 08:51:59;;;;;;;11.65;2.20;;;;;;;18.96;65.82;99200.03;5038395;28;20025;-74
2021/05/16 08:54:26;;;;;;;13.70;2.53;;;;;;;19.07;65.73;99198.16;5030321;28;20393;-74
2021/05/16 08:56:53;;;;;;;12.55;1.95;;;;;;;19.20;65.19;99195.91;5024890;28;20146;-75
2021/05/16 08:59:20;;;;;;;10.35;2.15;;;;;;;19.33;64.75;99188.81;5008033;28;20040;-74
2021/05/16 09:01:55;;;;;;;10.57;1.98;;;;;;;19.49;64.31;99193.41;5024061;28;20540;-74
2021/05/16 09:04:23;;;;;;;11.00;1.85;;;;;;;19.63;61.96;99190.72;5054971;28;20385;-73
2021/05/16 09:06:51;;;;;;;8.15;1.60;;;;;;;19.75;62.80;99190.50;5022399;28;20056;-78
2021/05/16 09:09:46;;;;;;;10.88;1.95;;;;;;;19.90;61.87;99182.97;5008071;28;20025;-76
2021/05/16 09:12:14;;;;;;;13.77;2.53;;;;;;;20.03;61.82;99189.94;5001865;28;20398;-77
2021/05/16 09:14:50;;;;;;;10.02;1.70;;;;;;;20.21;61.54;99184.44;5037206;28;20564;-80
2021/05/16 09:17:30;;;;;;;8.20;1.80;;;;;;;20.35;60.96;99186.53;5000470;28;20087;-77
2021/05/16 09:19:58;;;;;;;10.13;1.63;;;;;;;20.47;59.98;99189.03;5004895;28;20393;-77
2021/05/16 09:22:41;;;;;;;8.98;1.35;;;;;;;20.60;60.09;99185.94;5038129;28;20060;-77
2021/05/16 09:25:12;;;;;;;8.32;1.90;;;;;;;20.70;59.07;99183.16;5033863;28;20024;-77
2021/05/16 09:27:38;;;;;;;9.45;1.75;;;;;;;20.85;58.75;99186.06;5041504;28;20112;-78
2021/05/16 09:30:19;;;;;;;9.77;1.73;;;;;;;21.01;58.11;99182.91;5050576;28;20090;-78
2021/05/16 09:32:57;;;;;;;9.55;1.80;;;;;;;21.15;58.29;99186.59;5055382;28;20123;-78
2021/05/16 09:35:31;;;;;;;6.97;1.50;;;;;;;21.27;58.24;99181.78;5062378;28;20036;-80
2021/05/16 09:38:21;;;;;;;9.65;1.70;;;;;;;21.38;57.84;99188.31;5047890;28;20042;-78
2021/05/16 09:40:51;;;;;;;10.80;1.80;;;;;;;21.50;57.32;99173.81;5050829;28;20063;-77
2021/05/16 09:43:25;;;;;;;11.20;1.92;;;;;;;21.57;57.87;99192.81;5056796;28;20052;-81
2021/05/16 09:45:57;;;;;;;15.52;1.90;;;;;;;21.37;58.94;99198.00;5018265;28;20512;-82
2021/05/16 09:48:30;;;;;;;13.48;2.08;;;;;;;21.29;58.52;99210.44;5030203;28;20039;-82
2021/05/16 09:51:05;;;;;;;9.15;1.77;;;;;;;21.14;58.49;99210.38;5039275;28;20037;-82
2021/05/16 09:53:31;;;;;;;11.55;2.00;;;;;;;20.91;59.55;99226.81;5036413;28;20031;-81
2021/05/16 09:56:17;;;;;;;10.35;1.92;;;;;;;20.66;59.59;99224.63;4996258;28;20030;-81
2021/05/16 09:58:43;;;;;;;11.43;2.50;;;;;;;20.35;59.81;99219.56;5056944;28;20175;-83
2021/05/16 10:01:09;;;;;;;10.23;1.85;;;;;;;20.10;62.42;99225.81;5067297;28;20029;-83
2021/05/16 10:03:36;;;;;;;7.80;1.38;;;;;;;19.99;63.35;99222.88;5041766;28;20027;-82
2021/05/16 10:06:02;;;;;;;9.38;1.83;;;;;;;19.90;64.26;99219.59;5068667;28;20043;-81
2021/05/16 10:08:29;;;;;;;14.77;1.75;;;;;;;19.83;64.42;99211.88;5028132;28;20029;-80
2021/05/16 10:10:55;;;;;;;9.57;1.48;;;;;;;19.82;66.15;99209.47;5052017;28;20116;-81
2021/05/16 10:13:21;;;;;;;8.05;1.65;;;;;;;19.83;64.55;99209.06;5026581;28;20040;-81
2021/05/16 10:15:47;;;;;;;11.85;2.00;;;;;;;19.87;64.91;99209.09;5027394;28;20124;-82
2021/05/16 10:18:13;;;;;;;11.60;2.08;;;;;;;19.88;65.14;99201.47;5038471;28;20065;-81
2021/05/16 10:20:40;;;;;;;12.85;1.73;;;;;;;19.74;65.00;99213.41;5038470;28;20025;-81
2021/05/16 10:23:06;;;;;;;8.27;1.73;;;;;;;19.81;63.34;99211.47;5001489;28;20018;-81
2021/05/16 10:25:42;;;;;;;13.52;1.90;;;;;;;19.81;63.20;99205.84;5045567;28;20029;-81
2021/05/16 10:28:11;;;;;;;11.30;1.80;;;;;;;19.82;63.16;99199.00;5050096;28;20033;-81
2021/05/16 10:30:37;;;;;;;8.27;1.80;;;;;;;19.83;63.91;99199.78;5068273;28;20026;-80
2021/05/16 10:33:02;;;;;;;8.68;1.90;;;;;;;19.83;63.74;99197.78;5032344;28;20036;-79
2021/05/16 10:35:50;;;;;;;8.70;2.03;;;;;;;19.78;63.68;99192.53;5062857;28;20033;-78
2021/05/16 10:38:34;;;;;;;10.40;1.75;;;;;;;19.75;63.78;99187.69;5036476;28;20116;-78
2021/05/16 10:41:25;;;;;;;8.50;1.85;;;;;;;19.80;63.73;99178.03;5033263;28;20107;-77
2021/05/16 10:43:51;;;;;;;13.73;1.90;;;;;;;19.72;63.57;99179.97;5055099;28;20080;-77
2021/05/16 10:46:39;;;;;;;11.65;2.00;;;;;;;19.84;63.18;99168.44;5054749;28;21392;-77
2021/05/16 10:49:25;;;;;;;8.85;1.77;;;;;;;19.92;62.59;99174.13;5041700;28;20032;-77
2021/05/16 10:51:50;;;;;;;13.45;2.03;;;;;;;20.01;62.30;99169.78;5054555;28;20033;-77
2021/05/16 10:54:33;;;;;;;11.75;2.10;;;;;;;20.05;62.05;99178.25;5049169;28;20496;-77
2021/05/16 10:57:15;;;;;;;13.25;1.92;;;;;;;20.07;61.80;99175.88;5047234;28;20033;-77
2021/05/16 10:59:41;;;;;;;12.32;2.15;;;;;;;20.04;61.99;99176.66;5052470;28;20033;-76
2021/05/16 11:02:06;;;;;;;12.63;2.13;;;;;;;20.05;61.92;99167.78;5053711;28;20556;-76
2021/05/16 11:04:49;;;;;;;10.05;1.92;;;;;;;20.24;62.63;99157.47;5071183;28;20055;-76
2021/05/16 11:07:33;;;;;;;10.43;1.80;;;;;;;20.68;62.58;99160.19;5053162;28;20037;-76
2021/05/16 11:10:25;;;;;;;13.15;2.10;;;;;;;21.01;59.97;99144.22;5019544;28;20029;-76
2021/05/16 11:12:51;;;;;;;8.60;1.90;;;;;;;21.27;59.04;99142.25;5038036;28;20076;-76
2021/05/16 11:15:23;;;;;;;11.50;1.95;;;;;;;21.41;58.87;99131.81;5048734;28;20037;-76
2021/05/16 11:17:50;;;;;;;13.25;2.60;;;;;;;21.52;58.40;99126.19;5044659;28;20039;-76
2021/05/16 11:20:17;;;;;;;13.20;2.50;;;;;;;21.62;58.00;99130.25;5052972;28;20040;-78
2021/05/16 11:22:43;;;;;;;14.45;2.30;;;;;;;21.71;57.94;99138.34;5010613;28;20086;-77
2021/05/16 11:25:09;;;;;;;12.27;2.00;;;;;;;21.76;57.43;99143.59;5005414;28;20036;-78
2021/05/16 11:27:35;;;;;;;11.02;2.50;;;;;;;21.87;57.92;99155.69;5051489;28;20025;-78
2021/05/16 11:30:07;;;;;;;10.25;2.20;;;;;;;21.98;58.53;99130.25;5030944;28;20113;-78